Latest Weather Observations for PORTABLE RFSNSW52

IDN60801

Issued at 2:04 am EDT Tuesday 26 January 2021 (issued every 10 minutes, with the page automatically refreshed every 10 minutes)

About weather observations | Map of weather stations | Latest weather observations for NSW | Other Formats
Station Details ID: 250095 Name: PORTABLE RFSNSW52 Lat: -35.44 Lon: 146.44 Height: 146.0 m

Portable automatic weather stations (PAWS) are operated by other organisations, such as Fire and Emergency Services, and are included here by agreement. Portable stations may be deployed to a location for a short period and their location may be subject to change without notice. Wind observations from these stations are provided from heights of either three (3) or ten (10) metres above ground level (AGL).

Data from the previous 72 hours. | See also: Recent months for locations in New South Wales
Date/Time
EDT
Temp
°C
App
Temp
°C
Dew
Point
°C
Rel
Hum
%
Delta-T
°C
Wind Press
QNH
hPa
Press
MSL
hPa
Rain since
9am
mm
Dir  Spd
km/h
Gust
km/h
Spd
kts
Gust
kts
26/01:50am 30.0 25.9 2.4 17 13.8 W 13 19 7 10 - - 0.0
26/01:40am 29.2 25.5 2.4 18 13.4 WNW 11 17 6 9 - - 0.0
26/01:30am 28.6 24.5 4.6 21 12.4 NNW 15 22 8 12 - - 0.0
26/01:20am 28.3 24.3 4.7 22 12.2 N 15 17 8 9 - - 0.0
26/01:10am 28.5 24.2 5.1 22 12.2 N 17 19 9 10 - - 0.0
26/01:00am 28.8 24.5 5.2 22 12.3 N 17 17 9 9 - - 0.0
26/12:50am 29.1 24.8 5.1 21 12.5 N 17 19 9 10 - - 0.0
26/12:40am 28.6 24.6 5.1 22 12.2 N 15 17 8 9 - - 0.0
26/12:30am 28.3 24.9 5.9 24 11.8 N 13 15 7 8 - - 0.0
26/12:20am 28.3 24.9 6.0 24 11.8 N 13 15 7 8 - - 0.0
26/12:10am 28.5 25.2 6.5 25 11.7 N 13 15 7 8 - - 0.0
26/12:00am 29.0 25.7 6.5 24 12.0 N 13 15 7 8 - - 0.0
 
Date/Time
EDT
Temp
°C
App
Temp
°C
Dew
Point
°C
Rel
Hum
%
Delta-T
°C
Wind Press
QNH
hPa
Press
MSL
hPa
Rain since
9am
mm
Dir  Spd
km/h
Gust
km/h
Spd
kts
Gust
kts
25/11:50pm 29.9 26.6 6.4 22 12.6 N 13 13 7 7 - - 0.0
25/11:40pm 30.7 27.4 6.4 21 13.1 N 13 15 7 8 - - 0.0
25/11:30pm 30.9 27.2 6.4 21 13.2 N 15 17 8 9 - - 0.0
25/11:20pm 30.6 27.4 6.7 22 12.9 N 13 15 7 8 - - 0.0
25/11:10pm 30.9 28.1 6.8 22 13.1 NNW 11 13 6 7 - - 0.0
25/11:00pm 31.2 28.4 6.9 22 13.2 NNW 11 13 6 7 - - 0.0
25/10:50pm 31.7 28.5 6.9 21 13.5 NNW 13 15 7 8 - - 0.0
25/10:40pm 32.1 29.3 6.8 20 13.8 NNW 11 13 6 7 - - 0.0
25/10:30pm 32.4 29.6 7.1 20 13.9 NNW 11 13 6 7 - - 0.0
25/10:20pm 32.9 30.1 6.8 19 14.3 NNW 11 13 6 7 - - 0.0
25/10:10pm 33.2 30.3 6.6 19 14.5 NNW 11 11 6 6 - - 0.0
25/10:00pm 33.6 30.7 6.6 18 14.8 NNW 11 11 6 6 - - 0.0
25/09:50pm 34.1 31.2 6.4 18 15.2 NW 11 13 6 7 - - 0.0
25/09:40pm 34.5 31.6 6.3 17 15.5 NW 11 13 6 7 - - 0.0
25/09:30pm 34.7 31.7 6.2 17 15.6 NW 11 15 6 8 - - 0.0
25/09:20pm 34.8 31.5 6.2 17 15.7 NW 13 15 7 8 - - 0.0
25/09:10pm 35.0 31.7 6.4 17 15.7 NW 13 15 7 8 - - 0.0
25/09:00pm 35.3 32.1 6.8 17 15.8 NW 13 15 7 8 - - 0.0
25/08:50pm 35.6 32.4 6.8 17 16.0 NW 13 15 7 8 - - 0.0
25/08:40pm 35.7 32.6 7.2 17 15.9 NW 13 15 7 8 - - 0.0
25/08:30pm 36.0 32.6 7.5 17 16.0 NW 15 17 8 9 - - 0.0
25/08:20pm 36.2 32.8 7.7 17 16.1 NNW 15 19 8 10 - - 0.0
25/08:10pm 36.6 32.8 7.6 17 16.4 NNW 17 20 9 11 - - 0.0
25/08:00pm 37.0 33.3 7.8 17 16.6 NNW 17 20 9 11 - - 0.0
25/07:50pm 37.4 33.7 7.9 16 16.8 NW 17 22 9 12 - - 0.0
25/07:40pm 37.5 33.8 7.8 16 16.9 NNW 17 22 9 12 - - 0.0
25/07:30pm 37.4 33.8 8.4 17 16.6 NW 17 19 9 10 - - 0.0
25/07:20pm 37.6 33.5 8.7 17 16.7 NNW 20 26 11 14 - - 0.0
25/07:10pm 37.8 33.8 8.9 17 16.7 NNW 20 24 11 13 - - 0.0
25/07:00pm 38.0 33.9 8.8 17 16.9 NNW 20 26 11 14 - - 0.0
25/06:50pm 37.8 33.8 8.9 17 16.7 NNW 20 24 11 13 - - 0.0
25/06:40pm 37.9 33.5 9.1 17 16.7 NW 22 30 12 16 - - 0.0
25/06:30pm 38.1 33.3 9.0 17 16.9 NNW 24 26 13 14 - - 0.0
25/06:20pm 37.9 32.2 8.5 16 16.9 NNW 28 32 15 17 - - 0.0
25/06:10pm 37.9 33.2 9.1 17 16.7 NNW 24 30 13 16 - - 0.0
25/06:00pm 38.0 34.0 9.1 17 16.8 NNW 20 26 11 14 - - 0.0
25/05:50pm 38.3 34.3 9.1 17 17.0 NNW 20 26 11 14 - - 0.0
25/05:40pm 38.5 34.0 8.7 16 17.3 NNW 22 24 12 13 - - 0.0
25/05:30pm 38.8 34.4 8.8 16 17.4 NNW 22 26 12 14 - - 0.0
25/05:20pm 38.8 33.9 8.3 15 17.6 NNW 24 30 13 16 - - 0.0
25/05:10pm 39.3 34.5 9.0 16 17.7 NNW 24 30 13 16 - - 0.0
25/05:00pm 41.2 37.1 8.8 14 19.0 NW 20 26 11 14 - - 0.0
25/04:50pm 39.4 35.4 8.2 15 18.0 NNW 19 30 10 16 - - 0.0
25/04:40pm 40.0 34.8 8.7 15 18.2 NNW 26 33 14 18 - - 0.0
25/04:30pm 39.8 35.6 8.1 14 18.3 NNW 20 28 11 15 - - 0.0
25/04:20pm 41.1 36.4 9.2 15 18.8 N 24 33 13 18 - - 0.0
25/04:10pm 41.3 37.1 8.4 14 19.2 NNW 20 26 11 14 - - 0.0
25/04:00pm 40.2 36.1 8.6 15 18.4 NNW 20 24 11 13 - - 0.0
25/03:50pm 40.4 36.4 8.2 14 18.7 NNW 19 24 10 13 - - 0.0
25/03:40pm 40.5 36.0 8.7 14 18.6 NW 22 28 12 15 - - 0.0
25/03:30pm 41.0 36.8 8.3 14 19.0 NNW 20 26 11 14 - - 0.0
25/03:20pm 41.0 36.1 8.3 14 19.0 NNW 24 30 13 16 - - 0.0
25/03:10pm 40.7 35.6 9.3 15 18.5 NW 26 33 14 18 - - 0.0
25/03:00pm 41.4 37.4 8.4 14 19.3 NW 19 28 10 15 - - 0.0
25/02:40pm 42.3 38.3 8.4 13 19.9 NNW 19 28 10 15 - - 0.0
25/01:40pm 41.5 37.0 8.5 14 19.3 NW 22 32 12 17 - - 0.0
25/01:30pm 41.0 36.6 8.8 14 18.9 WNW 22 26 12 14 - - 0.0
25/01:20pm 40.4 35.5 8.3 14 18.6 WNW 24 28 13 15 - - 0.0
25/12:20pm 39.6 34.7 8.6 15 18.0 NW 24 30 13 16 - - 0.0
25/11:50am 39.7 34.5 8.8 15 18.0 WNW 26 30 14 16 - - 0.0
25/11:00am 39.0 34.6 8.8 16 17.6 NW 22 26 12 14 - - 0.0
25/10:30am 38.2 33.4 8.7 16 17.1 NW 24 28 13 15 - - 0.0
25/10:20am 37.7 32.8 8.6 17 16.8 WNW 24 32 13 17 - - 0.0
25/09:20am 35.0 30.6 9.0 20 14.9 NW 22 28 12 15 - - 0.0
25/09:10am 34.0 30.1 9.4 22 14.1 NW 20 24 11 13 - - 0.0
25/09:00am 33.5 29.3 9.6 23 13.7 NW 22 26 12 14 - - 0.0
25/08:50am 32.7 29.0 9.6 24 13.2 NNW 19 24 10 13 - - 0.0
25/08:40am 31.2 27.9 9.7 26 12.2 NNW 17 19 9 10 - - 0.0
25/08:30am 30.2 27.2 9.4 27 11.7 NNW 15 17 8 9 - - 0.0
25/08:20am 28.7 25.7 9.4 30 10.8 N 15 17 8 9 - - 0.0
25/08:10am 28.0 25.1 9.6 31 10.3 N 15 17 8 9 - - 0.0
25/08:00am 28.6 25.4 9.9 31 10.5 N 17 19 9 10 - - 0.0
25/07:50am 28.4 25.5 9.6 31 10.5 N 15 17 8 9 - - 0.0
25/07:40am 27.5 24.6 9.6 32 10.0 N 15 17 8 9 - - 0.0
25/07:30am 26.6 24.0 9.4 33 9.5 NNE 13 15 7 8 - - 0.0
25/07:20am 25.7 23.1 9.4 35 9.0 NNE 13 15 7 8 - - 0.0
25/07:10am 25.4 22.8 9.3 36 8.8 NNE 13 15 7 8 - - 0.0
25/06:50am 25.0 21.9 8.7 35 8.8 NNE 15 15 8 8 - - 0.0
25/06:40am 24.9 21.7 8.5 35 8.9 NNE 15 15 8 8 - - 0.0
25/06:30am 24.9 21.6 8.1 34 9.0 NNE 15 15 8 8 - - 0.0
25/06:20am 24.7 21.3 7.6 33 9.1 NNE 15 15 8 8 - - 0.0
25/06:10am 24.5 21.4 7.2 33 9.1 NNE 13 15 7 8 - - 0.0
25/06:00am 24.4 21.1 6.6 32 9.3 NNE 13 15 7 8 - - 0.0
25/05:50am 24.6 20.9 6.1 30 9.6 NNE 15 17 8 9 - - 0.0
25/05:40am 24.9 21.1 5.7 29 9.9 NNE 15 17 8 9 - - 0.0
25/05:30am 25.1 20.8 5.1 27 10.2 NNE 17 19 9 10 - - 0.0
25/05:20am 24.9 20.5 4.6 27 10.2 NNE 17 19 9 10 - - 0.0
25/05:00am 25.0 20.7 3.5 24 10.6 NNE 15 17 8 9 - - 0.0
25/04:50am 24.9 20.6 3.3 24 10.6 NNE 15 15 8 8 - - 0.0
25/04:40am 24.9 20.6 3.0 24 10.7 NNE 15 17 8 9 - - 0.0
25/04:30am 25.0 20.6 2.7 23 10.9 NNE 15 15 8 8 - - 0.0
25/04:20am 25.1 20.6 2.2 22 11.1 NNE 15 17 8 9 - - 0.0
25/04:10am 25.2 20.6 1.7 21 11.3 NNE 15 15 8 8 - - 0.0
25/04:00am 24.8 20.1 1.1 21 11.2 NE 15 17 8 9 - - 0.0
25/03:50am 24.0 18.9 0.7 21 10.9 NE 17 17 9 9 - - 0.0
25/03:30am 23.4 19.1 0.9 22 10.5 NE 13 13 7 7 - - 0.0
25/03:20am 23.5 19.2 1.0 22 10.5 NE 13 13 7 7 - - 0.0
25/03:10am 23.5 19.6 1.0 22 10.5 NE 11 13 6 7 - - 0.0
25/03:00am 23.7 19.5 1.7 23 10.4 NE 13 15 7 8 - - 0.0
25/02:50am 24.5 20.3 1.7 22 10.9 NNE 13 13 7 7 - - 0.0
25/02:40am 24.9 20.6 1.1 21 11.2 NNE 13 15 7 8 - - 0.0
25/02:30am 25.3 21.7 0.4 19 11.6 N 9 13 5 7 - - 0.0
25/02:20am 25.5 21.9 0.9 20 11.6 NNE 9 9 5 5 - - 0.0
25/02:10am 25.5 21.9 0.8 20 11.7 NNE 9 11 5 6 - - 0.0
25/02:00am 25.4 21.4 0.7 20 11.6 NE 11 13 6 7 - - 0.0
25/01:50am 24.9 21.0 1.0 21 11.3 NE 11 13 6 7 - - 0.0
25/01:40am 24.3 20.4 1.1 22 10.9 NE 11 11 6 6 - - 0.0
25/01:30am 24.1 20.2 1.4 22 10.7 NE 11 11 6 6 - - 0.0
25/01:20am 23.9 20.5 1.7 23 10.5 NE 9 9 5 5 - - 0.0
25/01:10am 23.8 20.4 1.9 23 10.4 NE 9 9 5 5 - - 0.0
25/01:00am 23.8 20.5 2.2 24 10.3 NE 9 11 5 6 - - 0.0
25/12:50am 24.2 20.9 2.3 24 10.5 NE 9 9 5 5 - - 0.0
25/12:40am 25.0 21.6 1.9 22 11.1 NE 9 9 5 5 - - 0.0
25/12:30am 25.9 22.5 1.7 20 11.6 NE 9 11 5 6 - - 0.0
25/12:20am 26.2 22.6 0.4 18 12.2 NE 9 9 5 5 - - 0.0
25/12:10am 26.2 22.7 1.1 19 12.0 NE 9 9 5 5 - - 0.0
25/12:00am 26.9 23.8 1.6 19 12.2 NE 7 9 4 5 - - 0.0
 
Date/Time
EDT
Temp
°C
App
Temp
°C
Dew
Point
°C
Rel
Hum
%
Delta-T
°C
Wind Press
QNH
hPa
Press
MSL
hPa
Rain since
9am
mm
Dir  Spd
km/h
Gust
km/h
Spd
kts
Gust
kts
24/11:50pm 27.6 24.5 1.2 18 12.7 ENE 7 7 4 4 - - 0.0
24/11:40pm 28.0 24.8 0.8 17 13.1 E 7 9 4 5 - - 0.0
24/11:30pm 28.2 24.6 0.5 16 13.3 E 9 9 5 5 - - 0.0
24/11:20pm 27.9 24.7 0.7 17 13.0 E 7 9 4 5 - - 0.0
24/11:10pm 28.2 25.1 1.5 18 13.0 E 7 9 4 5 - - 0.0
24/11:00pm 29.1 25.9 0.7 16 13.7 E 7 7 4 4 - - 0.0
24/10:50pm 29.9 26.8 0.4 15 14.3 SE 6 6 3 3 - - 0.0
24/10:40pm 30.5 27.7 -0.3 13 14.8 ESE 4 6 2 3 - - 0.0
24/10:30pm 30.1 26.9 -0.4 14 14.6 SE 6 6 3 3 - - 0.0
24/10:20pm 29.5 26.3 -0.4 14 14.2 SSE 6 6 3 3 - - 0.0
24/10:10pm 29.1 26.0 0.1 15 13.9 SSE 6 7 3 4 - - 0.0
24/10:00pm 29.4 26.4 1.7 17 13.7 SE 7 9 4 5 - - 0.0
24/09:20pm 32.3 29.5 -0.4 12 15.9 NNE 4 4 2 2 - - 0.0
24/09:00pm 32.6 29.5 0.3 12 15.9 NNW 6 6 3 3 - - 0.0
24/08:50pm 34.2 31.3 -1.0 10 17.1 NNE 4 4 2 2 - - 0.0
24/08:30pm 34.7 31.9 -0.3 11 17.3 N 4 6 2 3 - - 0.0
24/08:20pm 35.3 32.9 -0.6 10 17.7 NNW 2 4 1 2 - - 0.0
24/08:10pm 36.7 33.9 -0.5 9 18.5 NW 4 6 2 3 - - 0.0
24/08:00pm 37.8 35.0 -0.3 9 19.2 NW 4 6 2 3 - - 0.0
24/07:50pm 39.1 36.9 1.0 9 19.7 W 2 4 1 2 - - 0.0
24/07:40pm 39.4 36.6 -0.3 8 20.2 N 4 6 2 3 - - 0.0
24/07:30pm 40.0 36.8 -0.8 8 20.6 WNW 6 7 3 4 - - 0.0
24/07:20pm 40.2 37.5 0.2 8 20.6 WNW 4 6 2 3 - - 0.0
24/07:10pm 39.6 37.4 1.0 9 20.0 NW 2 4 1 2 - - 0.0
24/06:50pm 39.2 35.9 -1.1 8 20.2 W 6 9 3 5 - - 0.0
24/06:40pm 38.7 35.6 -0.1 9 19.7 W 6 7 3 4 - - 0.0
24/06:30pm 38.7 35.5 -0.5 8 19.8 W 6 7 3 4 - - 0.0
24/06:20pm 38.9 35.5 -0.6 8 19.9 W 7 9 4 5 - - 0.0
24/06:10pm 38.8 35.4 -0.4 8 19.8 NW 7 11 4 6 - - 0.0
24/06:00pm 39.0 36.0 0.6 9 19.7 WNW 6 7 3 4 - - 0.0
24/05:50pm 39.4 37.2 0.8 9 19.9 NW 2 6 1 3 - - 0.0
24/05:40pm 39.7 37.0 0.3 8 20.2 NW 4 7 2 4 - - 0.0
24/05:30pm 39.7 37.1 0.8 9 20.1 WNW 4 6 2 3 - - 0.0
24/05:20pm 40.4 37.1 0.0 8 20.7 W 7 9 4 5 - - 0.0
24/05:10pm 41.3 38.3 0.5 8 21.2 S 6 7 3 4 - - 0.0
24/05:00pm 40.9 37.5 -0.4 7 21.1 S 7 15 4 8 - - 0.0
24/04:50pm 41.3 38.2 0.2 8 21.3 WSW 6 9 3 5 - - 0.0
24/04:30pm 40.8 38.1 0.5 8 20.9 N 4 7 2 4 - - 0.0
24/04:20pm 40.7 37.4 0.2 8 20.9 NW 7 15 4 8 - - 0.0
24/04:10pm 42.1 38.0 -0.5 7 21.9 WSW 11 13 6 7 - - 0.0
24/03:50pm 42.0 38.3 -0.2 7 21.8 WNW 9 17 5 9 - - 0.0
24/03:40pm 42.6 39.1 -1.3 6 22.4 W 7 15 4 8 - - 0.0
24/03:30pm 41.4 38.1 -1.2 7 21.6 WSW 6 15 3 8 - - 0.0
24/03:20pm 41.8 38.5 -1.4 7 21.9 SSW 6 7 3 4 - - 0.0
24/03:10pm 40.6 37.3 -1.0 7 21.1 NW 6 9 3 5 - - 0.0
24/03:00pm 40.9 36.8 -0.2 8 21.1 NW 11 17 6 9 - - 0.0
24/02:50pm 42.0 38.2 -0.8 7 21.9 N 9 20 5 11 - - 0.0
24/02:40pm 41.9 38.6 -1.5 7 22.0 SSW 6 13 3 7 - - 0.0
24/02:30pm 40.8 37.3 -1.6 7 21.3 W 7 13 4 7 - - 0.0
24/02:20pm 40.1 36.0 -0.1 8 20.6 SW 11 20 6 11 - - 0.0
24/02:10pm 41.1 36.2 -0.5 7 21.3 W 15 19 8 10 - - 0.0
24/02:00pm 41.5 38.0 -1.2 7 21.7 SSW 7 17 4 9 - - 0.0
24/01:50pm 41.4 37.9 -1.0 7 21.6 SSE 7 13 4 7 - - 0.0
24/01:40pm 41.1 36.5 -0.8 7 21.3 SW 13 19 7 10 - - 0.0
24/01:30pm 40.7 36.6 -0.1 8 21.0 W 11 15 6 8 - - 0.0
24/01:20pm 40.3 35.3 -1.1 7 20.9 W 15 20 8 11 - - 0.0
24/01:10pm 41.1 37.3 -0.7 7 21.3 NW 9 19 5 10 - - 0.0
24/01:00pm 41.3 38.0 -0.2 7 21.4 SSW 7 11 4 6 - - 0.0
24/12:50pm 40.2 36.9 -0.9 7 20.8 NNE 6 11 3 6 - - 0.0
24/12:40pm 40.3 35.9 0.1 8 20.7 WNW 13 17 7 9 - - 0.0
24/12:30pm 40.6 37.4 0.7 8 20.7 E 7 11 4 6 - - 0.0
24/12:20pm 40.5 36.8 -0.2 8 20.8 NW 9 15 5 8 - - 0.0
24/12:10pm 40.4 36.8 0.8 8 20.6 SSW 9 13 5 7 - - 0.0
24/12:00pm 39.5 36.3 0.6 9 20.0 SW 7 11 4 6 - - 0.0
24/11:50am 39.8 36.9 1.6 9 20.0 E 6 9 3 5 - - 0.0
24/11:40am 39.0 36.1 1.3 9 19.6 ENE 6 11 3 6 - - 0.0
24/11:30am 38.5 35.1 2.1 10 19.1 NNE 9 15 5 8 - - 0.0
24/11:20am 37.9 34.8 1.4 10 18.9 N 7 9 4 5 - - 0.0
24/11:10am 37.3 33.5 2.0 11 18.4 N 11 15 6 8 - - 0.0
24/11:00am 38.0 34.7 2.6 11 18.7 NNE 9 15 5 8 - - 0.0
24/10:50am 37.3 33.6 2.3 11 18.3 NNE 11 15 6 8 - - 0.0
24/10:40am 36.9 33.1 1.6 11 18.2 NNE 11 17 6 9 - - 0.0
24/10:30am 36.6 32.4 1.4 11 18.1 NNE 13 15 7 8 - - 0.0
24/10:20am 36.5 32.6 1.4 11 18.0 NNE 11 15 6 8 - - 0.0
24/10:10am 35.6 31.3 0.9 11 17.6 NNE 13 15 7 8 - - 0.0
24/10:00am 35.3 31.1 1.6 12 17.2 NNE 13 15 7 8 - - 0.0
24/09:50am 35.1 31.1 2.6 13 16.8 NNE 13 13 7 7 - - 0.0
24/09:40am 34.8 31.6 3.3 14 16.5 NE 9 11 5 6 - - 0.0
24/09:20am 33.6 30.9 3.7 15 15.6 ENE 7 7 4 4 - - 0.0
24/09:10am 32.9 30.1 3.1 15 15.4 ENE 7 9 4 5 - - 0.0
24/09:00am 32.5 29.8 3.7 16 15.0 ENE 7 11 4 6 - - 0.0
24/08:50am 32.3 29.7 4.3 17 14.7 ENE 7 11 4 6 - - 0.0
24/08:40am 32.1 29.6 4.5 17 14.5 E 7 9 4 5 - - 0.0
24/08:30am 31.4 28.9 5.0 19 13.9 E 7 9 4 5 - - 0.0
24/08:20am 30.1 27.8 5.7 21 12.9 E 7 9 4 5 - - 0.0
24/08:10am 29.1 27.4 6.0 23 12.2 E 4 6 2 3 - - 0.0
24/08:00am 27.8 26.1 5.7 24 11.6 ENE 4 4 2 2 - - 0.0
24/07:40am 25.7 24.0 6.0 28 10.2 NNE 4 6 2 3 - - 0.0
24/07:30am 24.7 22.6 5.8 29 9.7 NE 6 7 3 4 - - 0.0
24/07:20am 23.5 21.2 5.7 31 9.1 NE 7 7 4 4 - - 0.0
24/07:10am 22.5 20.1 5.3 32 8.6 ENE 7 9 4 5 - - 0.0
24/07:00am 21.3 18.4 4.9 34 8.1 ENE 9 9 5 5 - - 0.0
24/06:50am 20.5 17.6 4.8 35 7.7 NE 9 9 5 5 - - 0.0
24/06:40am 19.6 16.4 5.2 38 7.1 NE 11 11 6 6 - - 0.0
24/06:30am 19.2 16.2 5.8 41 6.6 NE 11 11 6 6 - - 0.0
24/06:20am 19.1 16.1 6.1 42 6.5 NE 11 13 6 7 - - 0.0
24/06:10am 19.5 16.5 6.1 41 6.7 NE 11 11 6 6 - - 0.0
24/06:00am 19.7 16.7 5.9 40 6.9 NE 11 11 6 6 - - 0.0
24/05:50am 19.9 17.2 5.5 39 7.1 ENE 9 11 5 6 - - 0.0
24/05:40am 19.4 16.3 5.6 40 6.8 NE 11 11 6 6 - - 0.0
24/05:30am 19.5 15.9 5.2 39 7.0 NE 13 13 7 7 - - 0.0
24/05:20am 20.0 17.0 6.0 40 7.0 NE 11 11 6 6 - - 0.0
24/05:10am 20.0 17.7 4.9 37 7.4 NE 6 7 3 4 - - 0.0
24/05:00am 20.1 18.0 5.6 38 7.2 NNE 6 7 3 4 - - 0.0
24/04:50am 19.9 17.5 5.1 38 7.3 NNE 7 7 4 4 - - 0.0
24/04:40am 20.0 17.3 5.4 38 7.2 NNE 9 9 5 5 - - 0.0
24/04:30am 20.1 17.7 5.2 37 7.4 N 7 7 4 4 - - 0.0
24/04:20am 19.7 17.5 5.4 39 7.1 N 6 7 3 4 - - 0.0
24/04:10am 19.6 17.2 5.4 39 7.0 NNE 7 7 4 4 - - 0.0
24/04:00am 19.5 17.2 5.8 40 6.8 NE 7 9 4 5 - - 0.0
24/03:50am 19.8 17.1 5.7 39 7.0 NE 9 9 5 5 - - 0.0
24/03:40am 19.8 17.5 5.5 39 7.1 NE 7 9 4 5 - - 0.0
24/03:30am 20.0 17.8 6.1 40 7.0 NE 7 7 4 4 - - 0.0
24/03:20am 20.9 18.6 5.9 37 7.5 NE 7 7 4 4 - - 0.0
24/03:10am 21.3 19.0 5.5 35 7.9 ENE 7 7 4 4 - - 0.0
24/03:00am 21.8 19.7 5.6 35 8.1 ENE 6 7 3 4 - - 0.0
24/02:50am 22.3 20.1 5.2 33 8.6 E 6 6 3 3 - - 0.0
24/02:40am 22.0 19.6 5.1 33 8.4 ESE 7 7 4 4 - - 0.0
24/02:20am 21.9 19.4 5.0 33 8.4 SE 7 9 4 5 - - 0.0
24/02:00am 22.3 19.5 5.1 32 8.6 SE 9 11 5 6 - - 0.0
24/01:50am 22.9 20.5 5.2 31 8.9 SE 7 9 4 5 - - 0.0
24/01:40am 23.1 20.6 4.9 30 9.1 SE 7 9 4 5 - - 0.0
24/01:30am 23.2 20.8 5.1 31 9.1 SE 7 7 4 4 - - 0.0
24/01:20am 23.2 20.7 5.0 30 9.1 SE 7 9 4 5 - - 0.0
24/01:10am 23.3 20.5 5.1 30 9.2 SSE 9 9 5 5 - - 0.0
24/01:00am 23.5 20.7 5.2 30 9.2 SE 9 9 5 5 - - 0.0
24/12:50am 24.0 21.6 5.3 30 9.5 SE 7 9 4 5 - - 0.0
24/12:40am 24.2 21.7 5.0 29 9.7 SE 7 7 4 4 - - 0.0
24/12:20am 25.2 22.5 5.5 28 10.1 SSE 9 13 5 7 - - 0.0
24/12:10am 25.9 23.0 4.5 25 10.8 ESE 9 9 5 5 - - 0.0
24/12:00am 25.7 22.8 4.4 25 10.7 ESE 9 11 5 6 - - 0.0
 
Date/Time
EDT
Temp
°C
App
Temp
°C
Dew
Point
°C
Rel
Hum
%
Delta-T
°C
Wind Press
QNH
hPa
Press
MSL
hPa
Rain since
9am
mm
Dir  Spd
km/h
Gust
km/h
Spd
kts
Gust
kts
23/11:50pm 25.7 22.7 4.3 25 10.8 ESE 9 11 5 6 - - 0.0
23/11:40pm 25.7 22.7 4.1 24 10.8 ESE 9 11 5 6 - - 0.0
23/11:30pm 25.4 22.7 3.9 25 10.7 SE 7 9 4 5 - - 0.0
23/11:10pm 25.7 22.7 4.3 25 10.8 SE 9 11 5 6 - - 0.0
23/11:00pm 26.2 23.2 4.2 24 11.1 SE 9 9 5 5 - - 0.0
23/10:50pm 26.1 23.4 3.9 24 11.1 SE 7 9 4 5 - - 0.0
23/10:40pm 26.3 23.7 4.2 24 11.2 ESE 7 9 4 5 - - 0.0
23/10:20pm 27.7 24.0 2.4 19 12.5 SSE 11 11 6 6 - - 0.0
23/10:10pm 27.8 24.4 1.9 18 12.7 S 9 11 5 6 - - 0.0
23/10:00pm 27.9 24.5 1.8 18 12.8 S 9 11 5 6 - - 0.0
23/09:50pm 28.5 25.1 1.7 17 13.1 S 9 11 5 6 - - 0.0
23/09:40pm 28.7 24.8 1.3 17 13.3 SSE 11 11 6 6 - - 0.0
23/09:30pm 29.0 25.5 1.3 16 13.5 S 9 11 5 6 - - 0.0
23/09:10pm 29.5 26.6 1.4 16 13.8 S 6 7 3 4 - - 0.0
23/08:50pm 30.7 27.8 1.4 15 14.5 S 6 7 3 4 - - 0.0
23/08:40pm 31.4 28.4 1.7 15 14.8 S 7 7 4 4 - - 0.0
23/08:30pm 32.5 29.4 1.6 14 15.5 SSW 7 7 4 4 - - 0.0
23/08:20pm 33.4 30.3 1.5 13 16.1 SSW 7 9 4 5 - - 0.0
23/08:00pm 35.4 32.5 1.6 12 17.3 SSW 6 7 3 4 - - 0.0
23/07:40pm 37.1 33.1 0.3 10 18.6 SSW 11 17 6 9 - - 0.0
23/07:30pm 37.6 34.0 0.3 9 18.9 WSW 9 13 5 7 - - 0.0
23/07:20pm 37.9 33.5 0.2 9 19.1 SW 13 13 7 7 - - 0.0
23/07:10pm 38.1 34.1 0.3 9 19.2 WSW 11 13 6 7 - - 0.0
23/07:00pm 38.5 34.1 0.4 9 19.5 WSW 13 17 7 9 - - 0.0
23/06:50pm 38.8 34.8 0.3 9 19.7 WSW 11 17 6 9 - - 0.0
23/06:40pm 38.9 34.9 0.4 9 19.7 SW 11 15 6 8 - - 0.0
23/06:30pm 38.7 35.0 0.0 9 19.7 WNW 9 15 5 8 - - 0.0
23/06:20pm 38.8 34.7 0.1 9 19.7 W 11 17 6 9 - - 0.0
23/06:10pm 39.0 34.2 0.1 9 19.8 WSW 15 20 8 11 - - 0.0
23/06:00pm 39.8 35.8 0.4 8 20.3 SW 11 17 6 9 - - 0.0
23/05:50pm 40.0 36.4 0.7 8 20.3 SSW 9 11 5 6 - - 0.0
23/05:40pm 39.9 35.9 0.2 8 20.4 SW 11 17 6 9 - - 0.0
23/05:30pm 40.1 36.5 0.6 8 20.4 WSW 9 17 5 9 - - 0.0
23/05:20pm 39.7 36.4 0.0 8 20.3 WSW 7 15 4 8 - - 0.0
23/05:10pm 39.5 35.9 0.4 9 20.1 WNW 9 19 5 10 - - 0.0
23/05:00pm 39.5 35.4 0.1 8 20.2 W 11 17 6 9 - - 0.0
23/04:50pm 39.7 34.9 0.3 8 20.2 SW 15 19 8 10 - - 0.0
23/04:40pm 40.1 35.7 0.3 8 20.5 WSW 13 19 7 10 - - 0.0
23/04:30pm 39.9 35.8 0.0 8 20.4 WSW 11 17 6 9 - - 0.0
23/04:20pm 39.7 36.0 -0.1 8 20.3 SW 9 15 5 8 - - 0.0
23/04:10pm 39.8 36.0 -0.5 8 20.5 WSW 9 15 5 8 - - 0.0
23/04:00pm 39.5 35.0 -0.1 8 20.2 W 13 15 7 8 - - 0.0
23/03:50pm 39.6 35.9 0.0 8 20.2 W 9 15 5 8 - - 0.0
23/03:40pm 39.3 34.4 -0.6 8 20.2 W 15 19 8 10 - - 0.0
23/03:30pm 39.4 35.7 -0.1 8 20.1 SSW 9 17 5 9 - - 0.0
23/03:20pm 39.2 35.6 0.5 9 19.9 W 9 17 5 9 - - 0.0
23/03:10pm 39.6 34.8 0.2 8 20.2 W 15 20 8 11 - - 0.0
23/03:00pm 39.5 35.9 0.5 9 20.1 WSW 9 13 5 7 - - 0.0
23/02:50pm 39.8 35.0 0.1 8 20.3 SW 15 20 8 11 - - 0.0
23/02:40pm 39.0 34.2 0.2 9 19.8 WSW 15 20 8 11 - - 0.0
23/02:30pm 38.6 33.9 0.7 9 19.5 WNW 15 19 8 10 - - 0.0
23/02:20pm 38.6 33.4 0.3 9 19.5 W 17 22 9 12 - - 0.0
23/02:00pm 38.2 34.6 0.4 9 19.3 WNW 9 17 5 9 - - 0.0
23/01:50pm 37.8 33.5 1.1 10 18.9 N 13 19 7 10 - - 0.0
23/01:40pm 37.9 33.8 2.0 10 18.7 NW 13 19 7 10 - - 0.0
23/01:30pm 38.5 34.7 1.7 10 19.2 SW 11 19 6 10 - - 0.0
23/01:20pm 38.5 35.1 2.1 10 19.1 SW 9 13 5 7 - - 0.0
23/01:10pm 38.2 34.8 1.6 10 19.0 SW 9 13 5 7 - - 0.0
23/01:00pm 37.9 34.5 1.8 10 18.8 WSW 9 13 5 7 - - 0.0
23/12:50pm 37.5 34.7 1.9 11 18.5 W 6 11 3 6 - - 0.0
23/12:40pm 37.0 32.8 1.6 11 18.3 WSW 13 15 7 8 - - 0.0
23/12:30pm 36.8 34.0 2.0 11 18.0 NNW 6 11 3 6 - - 0.0
23/12:20pm 36.3 32.6 2.4 12 17.6 W 11 17 6 9 - - 0.0
23/12:10pm 36.1 32.7 2.1 12 17.6 WNW 9 15 5 8 - - 0.0
23/12:00pm 36.0 32.7 2.5 12 17.4 W 9 13 5 7 - - 0.0
23/11:40am 35.7 32.9 3.1 13 17.1 WNW 7 9 4 5 - - 0.0
23/11:30am 36.3 33.7 3.4 13 17.4 SW 6 7 3 4 - - 0.0
23/11:20am 35.7 33.2 4.5 14 16.7 S 7 7 4 4 - - 0.0
23/11:10am 35.7 33.3 4.3 14 16.8 SSW 6 9 3 5 - - 0.0
23/11:00am 34.9 33.1 5.4 16 16.0 SW 4 7 2 4 - - 0.0
23/10:50am 34.9 32.4 4.8 15 16.1 SSE 7 9 4 5 - - 0.0
23/10:40am 34.8 32.9 4.9 15 16.1 SSE 4 6 2 3 - - 0.0
23/10:30am 33.9 32.0 4.8 16 15.5 SSE 4 6 2 3 - - 0.0
23/10:20am 33.0 30.7 4.8 17 15.0 E 6 7 3 4 - - 0.0
23/10:10am 32.1 29.7 4.5 17 14.5 E 6 7 3 4 - - 0.0
23/10:00am 31.5 29.1 4.2 18 14.2 ESE 6 6 3 3 - - 0.0
23/09:50am 30.7 28.3 4.4 19 13.7 SE 6 6 3 3 - - 0.0
23/09:30am 28.9 26.4 3.9 20 12.8 ESE 6 7 3 4 - - 0.0
23/09:10am 27.2 25.6 4.6 23 11.6 SE 2 4 1 2 - - 0.0
23/09:00am 26.6 24.6 4.4 24 11.3 SE 4 6 2 3 - - 0.0
23/08:50am 26.1 23.8 4.6 25 10.9 S 6 6 3 3 - - 0.0
23/08:40am 26.5 24.5 4.5 24 11.2 SE 4 6 2 3 - - 0.0
23/08:30am 25.9 23.9 4.5 25 10.8 S 4 6 2 3 - - 0.0
23/08:20am 25.3 23.8 5.0 27 10.3 S 2 4 1 2 - - 0.0
23/08:10am 24.6 23.1 4.9 28 10.0 S 2 4 1 2 - - 0.0
23/08:00am 23.7 22.2 4.8 29 9.5 S 2 4 1 2 - - 0.0
23/07:50am 22.4 20.6 3.7 29 9.1 NE 2 2 1 1 - - 0.0
23/07:40am 21.0 19.1 2.9 30 8.6 ENE 2 2 1 1 - - 0.0
23/07:30am 19.4 17.3 1.8 31 8.1 NNE 2 4 1 2 - - 0.0
23/07:20am 18.4 16.3 1.8 33 7.6 N 2 4 1 2 - - 0.0
23/07:10am 17.2 14.8 -0.4 30 7.6 N 2 4 1 2 - - 0.0
23/07:00am 16.3 13.8 1.6 37 6.5 NNE 4 4 2 2 - - 0.0
23/06:50am 16.1 13.7 2.2 39 6.3 NE 4 6 2 3 - - 0.0
23/06:40am 15.2 13.0 0.8 37 6.2 NE 2 4 1 2 - - 0.0
23/06:30am 14.9 12.4 1.7 41 5.8 NNE 4 4 2 2 - - 0.0
23/06:20am 14.8 12.6 0.8 38 6.1 SSE 2 2 1 1 - - 0.0
23/06:10am 14.6 12.5 1.8 42 5.6 NNE 2 4 1 2 - - 0.0
23/06:00am 14.8 12.7 1.7 41 5.8 NW 2 4 1 2 - - 0.0
23/05:50am 14.7 12.6 2.0 42 5.6 SSW 2 2 1 1 - - 0.0
23/05:40am 15.4 13.3 3.8 46 5.4 E 4 7 2 4 - - 0.0
23/05:30am 17.2 14.5 2.6 37 6.7 SSW 6 6 3 3 - - 0.0
23/05:20am 17.2 14.4 2.3 36 6.8 SW 6 6 3 3 - - 0.0
23/05:00am 17.6 14.7 1.6 34 7.2 SSW 6 7 3 4 - - 0.0
23/04:50am 17.5 14.4 1.6 34 7.2 SSW 7 7 4 4 - - 0.0
23/04:40am 17.7 14.6 1.3 33 7.3 S 7 7 4 4 - - 0.0
23/04:30am 17.6 14.8 1.9 35 7.1 S 6 6 3 3 - - 0.0
23/04:20am 17.6 14.6 0.6 31 7.5 S 6 7 3 4 - - 0.0
23/04:10am 17.7 15.0 0.1 30 7.7 S 4 6 2 3 - - 0.0
23/04:00am 17.8 15.5 0.1 30 7.7 SSE 2 4 1 2 - - 0.0
23/03:50am 17.8 15.3 -0.9 28 8.0 SSE 2 2 1 1 - - 0.0
23/03:30am 16.6 13.4 -0.5 31 7.3 ENE 6 6 3 3 - - 0.0
23/03:20am 16.9 14.3 1.0 34 7.0 SSE 4 6 2 3 - - 0.0
23/03:10am 18.2 15.0 1.0 31 7.7 SSW 7 7 4 4 - - 0.0
23/03:00am 18.0 14.4 0.3 30 7.8 SSW 9 11 5 6 - - 0.0
23/02:50am 18.4 14.7 0.2 29 8.0 SSW 9 9 5 5 - - 0.0
23/02:40am 19.0 15.3 -0.3 27 8.5 SSW 9 9 5 5 - - 0.0
23/02:10am 20.2 16.7 -1.5 23 9.4 SSW 7 7 4 4 - - 0.0

Other formats

Comma delimited format used in spreadsheet applications
http://www.bom.gov.au/fwo/IDN60801/IDN60801.99791.axf

JavaScript Object Notation format (JSON) in row-major order
http://www.bom.gov.au/fwo/IDN60801/IDN60801.99791.json

Data quality

Most of these data are generated automatically and are frequently updated. Quality checks on data are not normally performed. It is possible for incorrect values to appear. Refer to information at About Latest Weather Observations and please check the disclaimer before using these data.